Time,TemperatureF,DewpointF,PressureIn,WindDirection,WindDirectionDegrees,WindSpeedMPH,WindSpeedGustMPH,Humidity,HourlyPrecipIn,Conditions,Clouds,dailyrainin,SoftwareType,DateUTC
2013-10-15 00:00:00,62.4,58.8,29.98,SSE,158,7.0,13.0,88,0.02,,,0.01,VWS V14.00,2013-10-15 05:00:00,
2013-10-15 00:05:00,62.2,58.9,29.99,SSE,158,5.0,11.0,89,0.03,,,0.02,VWS V14.00,2013-10-15 05:05:00,
2013-10-15 00:10:00,62.0,58.7,29.99,South,180,6.0,14.0,89,0.03,,,0.02,VWS V14.00,2013-10-15 05:10:00,
2013-10-15 00:15:00,61.9,58.9,29.98,South,180,5.0,14.0,90,0.03,,,0.02,VWS V14.00,2013-10-15 05:15:00,
2013-10-15 00:20:00,61.8,58.8,29.98,SSE,158,5.0,12.0,90,0.05,,,0.04,VWS V14.00,2013-10-15 05:20:00,
2013-10-15 00:25:00,61.6,58.6,29.98,SSE,158,7.0,14.0,90,0.05,,,0.04,VWS V14.00,2013-10-15 05:25:00,
2013-10-15 00:30:00,61.6,58.6,29.97,SSE,158,6.0,17.0,90,0.05,,,0.04,VWS V14.00,2013-10-15 05:30:00,
2013-10-15 00:35:00,61.6,58.6,29.97,SSE,158,5.0,17.0,90,0.05,,,0.04,VWS V14.00,2013-10-15 05:35:00,
2013-10-15 00:40:00,61.5,58.5,29.97,SSE,158,5.0,11.0,90,0.05,,,0.04,VWS V14.00,2013-10-15 05:40:00,
2013-10-15 00:45:00,61.4,58.5,29.96,SSE,158,6.0,14.0,90,0.05,,,0.04,VWS V14.00,2013-10-15 05:45:00,
2013-10-15 00:50:00,61.4,58.5,29.96,SSE,158,7.0,15.0,90,0.05,,,0.04,VWS V14.00,2013-10-15 05:50:00,
2013-10-15 00:55:00,61.4,58.5,29.96,SSE,158,6.0,16.0,90,0.06,,,0.05,VWS V14.00,2013-10-15 05:55:00,
2013-10-15 01:00:00,61.4,58.5,29.95,SSE,158,6.0,19.0,90,0.05,,,0.05,VWS V14.00,2013-10-15 06:00:00,
2013-10-15 01:05:00,61.4,58.1,29.95,SSE,158,9.0,22.0,89,0.04,,,0.05,VWS V14.00,2013-10-15 06:05:00,
2013-10-15 01:10:00,61.4,58.1,29.94,SSE,158,7.0,22.0,89,0.03,,,0.05,VWS V14.00,2013-10-15 06:10:00,
2013-10-15 01:15:00,61.4,58.1,29.95,SSE,158,4.0,10.0,89,0.03,,,0.05,VWS V14.00,2013-10-15 06:15:00,
2013-10-15 01:20:00,61.4,58.5,29.94,South,180,8.0,17.0,90,0.03,,,0.05,VWS V14.00,2013-10-15 06:20:00,
2013-10-15 01:25:00,61.4,58.5,29.94,SSE,158,9.0,20.0,90,0.01,,,0.05,VWS V14.00,2013-10-15 06:25:00,
2013-10-15 01:30:00,61.3,58.3,29.94,SSE,158,7.0,15.0,90,0.02,,,0.06,VWS V14.00,2013-10-15 06:30:00,
2013-10-15 01:35:00,61.2,58.6,29.94,SSE,158,6.0,19.0,91,0.04,,,0.08,VWS V14.00,2013-10-15 06:35:00,
2013-10-15 01:40:00,61.1,58.5,29.94,SSE,158,5.0,14.0,91,0.05,,,0.09,VWS V14.00,2013-10-15 06:40:00,
2013-10-15 01:45:00,61.0,58.7,29.94,SSE,158,5.0,13.0,92,0.05,,,0.09,VWS V14.00,2013-10-15 06:45:00,
2013-10-15 01:50:00,61.0,58.7,29.94,SSE,158,6.0,14.0,92,0.05,,,0.09,VWS V14.00,2013-10-15 06:50:00,
2013-10-15 01:55:00,61.0,58.7,29.94,SSE,158,6.0,14.0,92,0.05,,,0.09,VWS V14.00,2013-10-15 06:55:00,
2013-10-15 02:00:00,61.0,58.7,29.94,SSE,158,7.0,14.0,92,0.04,,,0.09,VWS V14.00,2013-10-15 07:00:00,
2013-10-15 02:05:00,61.0,58.7,29.95,South,180,5.0,11.0,92,0.04,,,0.09,VWS V14.00,2013-10-15 07:05:00,
2013-10-15 02:10:00,61.0,58.7,29.97,WSW,248,2.0,11.0,92,0.04,,,0.09,VWS V14.00,2013-10-15 07:10:00,
2013-10-15 02:15:00,60.9,58.6,29.98,WSW,248,2.0,8.0,92,0.05,,,0.10,VWS V14.00,2013-10-15 07:15:00,
2013-10-15 02:20:00,60.9,58.6,29.98,WSW,248,2.0,8.0,92,0.06,,,0.11,VWS V14.00,2013-10-15 07:20:00,
2013-10-15 02:25:00,60.8,58.5,29.98,WSW,248,3.0,9.0,92,0.06,,,0.11,VWS V14.00,2013-10-15 07:25:00,
2013-10-15 02:30:00,60.7,58.4,29.98,WSW,248,2.0,7.0,92,0.06,,,0.11,VWS V14.00,2013-10-15 07:30:00,
2013-10-15 02:35:00,60.7,58.4,29.98,WSW,248,2.0,10.0,92,0.05,,,0.11,VWS V14.00,2013-10-15 07:35:00,
2013-10-15 02:40:00,60.6,58.6,29.98,WSW,248,0.0,3.0,93,0.04,,,0.12,VWS V14.00,2013-10-15 07:40:00,
2013-10-15 02:45:00,60.5,58.5,29.98,WSW,248,0.0,3.0,93,0.03,,,0.12,VWS V14.00,2013-10-15 07:45:00,
2013-10-15 02:50:00,60.4,58.4,29.98,WSW,248,1.0,4.0,93,0.03,,,0.12,VWS V14.00,2013-10-15 07:50:00,
2013-10-15 02:55:00,60.4,58.1,29.99,SW,225,0.0,2.0,92,0.03,,,0.12,VWS V14.00,2013-10-15 07:55:00,
2013-10-15 03:00:00,60.3,58.3,29.99,SW,225,1.0,4.0,93,0.04,,,0.13,VWS V14.00,2013-10-15 08:00:00,
2013-10-15 03:05:00,60.1,58.1,29.98,South,180,2.0,7.0,93,0.05,,,0.14,VWS V14.00,2013-10-15 08:05:00,
2013-10-15 03:10:00,60.0,58.0,29.97,SSE,158,3.0,7.0,93,0.05,,,0.14,VWS V14.00,2013-10-15 08:10:00,
2013-10-15 03:15:00,59.9,57.9,29.97,South,180,2.0,5.0,93,0.05,,,0.14,VWS V14.00,2013-10-15 08:15:00,
2013-10-15 03:20:00,59.8,57.8,29.97,South,180,3.0,5.0,93,0.04,,,0.14,VWS V14.00,2013-10-15 08:20:00,
2013-10-15 03:25:00,59.8,57.8,29.97,South,180,1.0,4.0,93,0.03,,,0.14,VWS V14.00,2013-10-15 08:25:00,
2013-10-15 03:30:00,59.8,57.8,29.97,SSW,202,2.0,6.0,93,0.03,,,0.14,VWS V14.00,2013-10-15 08:30:00,
2013-10-15 03:35:00,59.7,57.7,29.97,SSW,202,1.0,5.0,93,0.03,,,0.14,VWS V14.00,2013-10-15 08:35:00,
2013-10-15 03:40:00,59.7,57.7,29.96,SSW,202,1.0,5.0,93,0.03,,,0.14,VWS V14.00,2013-10-15 08:40:00,
2013-10-15 03:45:00,59.6,57.6,29.95,SSE,158,3.0,7.0,93,0.02,,,0.14,VWS V14.00,2013-10-15 08:45:00,
2013-10-15 03:50:00,59.6,57.6,29.95,SSE,158,4.0,7.0,93,0.02,,,0.14,VWS V14.00,2013-10-15 08:50:00,
2013-10-15 03:55:00,59.6,57.6,29.95,SSE,158,4.0,7.0,93,0.02,,,0.14,VWS V14.00,2013-10-15 08:55:00,
2013-10-15 04:00:00,59.6,57.6,29.94,SSE,158,3.0,6.0,93,0.02,,,0.14,VWS V14.00,2013-10-15 09:00:00,
2013-10-15 04:05:00,59.6,57.9,29.94,SE,135,4.0,8.0,94,0.01,,,0.14,VWS V14.00,2013-10-15 09:05:00,
2013-10-15 04:10:00,59.5,57.8,29.93,SE,135,4.0,9.0,94,0.00,,,0.14,VWS V14.00,2013-10-15 09:10:00,
2013-10-15 04:15:00,59.5,57.8,29.93,SSE,158,3.0,6.0,94,0.00,,,0.14,VWS V14.00,2013-10-15 09:15:00,
2013-10-15 04:20:00,59.5,57.8,29.92,SE,135,4.0,7.0,94,0.00,,,0.14,VWS V14.00,2013-10-15 09:20:00,
2013-10-15 04:25:00,59.4,57.7,29.94,South,180,4.0,7.0,94,0.00,,,0.14,VWS V14.00,2013-10-15 09:25:00,
2013-10-15 04:30:00,59.4,57.7,29.95,South,180,4.0,7.0,94,0.00,,,0.14,VWS V14.00,2013-10-15 09:30:00,
2013-10-15 04:35:00,59.3,57.6,29.95,SSW,202,2.0,8.0,94,0.01,,,0.15,VWS V14.00,2013-10-15 09:35:00,
2013-10-15 04:40:00,59.3,57.6,29.95,SSW,202,1.0,5.0,94,0.01,,,0.15,VWS V14.00,2013-10-15 09:40:00,
2013-10-15 04:45:00,59.3,57.6,29.95,South,180,1.0,6.0,94,0.02,,,0.16,VWS V14.00,2013-10-15 09:45:00,
2013-10-15 04:50:00,59.2,57.5,29.95,SSW,202,1.0,7.0,94,0.02,,,0.16,VWS V14.00,2013-10-15 09:50:00,
2013-10-15 04:55:00,59.2,57.2,29.95,SSW,202,1.0,5.0,93,0.02,,,0.16,VWS V14.00,2013-10-15 09:55:00,
2013-10-15 05:00:00,59.1,57.1,29.96,WSW,248,0.0,2.0,93,0.03,,,0.17,VWS V14.00,2013-10-15 10:00:00,
2013-10-15 05:05:00,59.0,57.0,29.96,WSW,248,0.0,2.0,93,0.03,,,0.17,VWS V14.00,2013-10-15 10:05:00,
2013-10-15 05:10:00,59.0,57.0,29.95,SW,225,1.0,6.0,93,0.03,,,0.17,VWS V14.00,2013-10-15 10:10:00,
2013-10-15 05:15:00,58.8,56.8,29.95,SW,225,2.0,6.0,93,0.03,,,0.17,VWS V14.00,2013-10-15 10:15:00,
2013-10-15 05:20:00,58.7,56.7,29.95,SSW,202,0.0,2.0,93,0.03,,,0.17,VWS V14.00,2013-10-15 10:20:00,
2013-10-15 05:25:00,58.6,56.6,29.96,SW,225,0.0,2.0,93,0.03,,,0.17,VWS V14.00,2013-10-15 10:25:00,
2013-10-15 05:30:00,58.5,56.5,29.95,SSW,202,0.0,2.0,93,0.03,,,0.17,VWS V14.00,2013-10-15 10:30:00,
2013-10-15 05:35:00,58.4,56.4,29.95,SSW,202,0.0,0.0,93,0.03,,,0.17,VWS V14.00,2013-10-15 10:35:00,
2013-10-15 05:40:00,58.3,56.3,29.95,SSW,202,0.0,0.0,93,0.02,,,0.17,VWS V14.00,2013-10-15 10:40:00,
2013-10-15 05:45:00,58.1,56.1,29.95,SSW,202,0.0,0.0,93,0.02,,,0.17,VWS V14.00,2013-10-15 10:45:00,
2013-10-15 05:50:00,58.0,56.0,29.95,SSW,202,0.0,0.0,93,0.01,,,0.17,VWS V14.00,2013-10-15 10:50:00,
2013-10-15 05:55:00,57.9,55.9,29.95,SSW,202,0.0,0.0,93,0.01,,,0.17,VWS V14.00,2013-10-15 10:55:00,
2013-10-15 06:00:00,57.8,55.8,29.96,SSW,202,0.0,0.0,93,0.01,,,0.17,VWS V14.00,2013-10-15 11:00:00,
2013-10-15 06:05:00,57.8,55.8,29.96,SSW,202,2.0,6.0,93,0.00,,,0.17,VWS V14.00,2013-10-15 11:05:00,
2013-10-15 06:10:00,57.8,55.8,29.96,SW,225,1.0,4.0,93,0.00,,,0.17,VWS V14.00,2013-10-15 11:10:00,
2013-10-15 06:15:00,57.7,56.0,29.96,SW,225,1.0,5.0,94,0.00,,,0.17,VWS V14.00,2013-10-15 11:15:00,
2013-10-15 06:20:00,57.8,56.1,29.97,SW,225,1.0,6.0,94,0.00,,,0.17,VWS V14.00,2013-10-15 11:20:00,
2013-10-15 06:25:00,57.8,56.1,29.97,SW,225,1.0,5.0,94,0.00,,,0.17,VWS V14.00,2013-10-15 11:25:00,
2013-10-15 06:30:00,57.8,56.1,29.97,WSW,248,0.0,4.0,94,0.00,,,0.17,VWS V14.00,2013-10-15 11:30:00,
2013-10-15 06:35:00,57.9,56.2,29.97,SW,225,1.0,6.0,94,0.00,,,0.17,VWS V14.00,2013-10-15 11:35:00,
2013-10-15 06:40:00,57.9,56.2,29.97,SW,225,1.0,7.0,94,0.00,,,0.17,VWS V14.00,2013-10-15 11:40:00,
2013-10-15 06:45:00,57.8,56.1,29.98,SW,225,1.0,6.0,94,0.00,,,0.17,VWS V14.00,2013-10-15 11:45:00,
2013-10-15 06:50:00,57.8,56.1,29.97,SW,225,1.0,5.0,94,0.00,,,0.17,VWS V14.00,2013-10-15 11:50:00,
2013-10-15 06:55:00,57.9,56.2,29.97,SW,225,1.0,5.0,94,0.00,,,0.17,VWS V14.00,2013-10-15 11:55:00,
2013-10-15 07:00:00,57.9,56.2,29.98,West,270,1.0,4.0,94,0.00,,,0.17,VWS V14.00,2013-10-15 12:00:00,
2013-10-15 07:05:00,57.9,56.2,29.98,WNW,292,2.0,9.0,94,0.00,,,0.17,VWS V14.00,2013-10-15 12:05:00,
2013-10-15 07:10:00,57.8,56.1,29.98,WNW,292,3.0,14.0,94,0.00,,,0.17,VWS V14.00,2013-10-15 12:10:00,
2013-10-15 07:15:00,57.4,55.4,29.98,WNW,292,5.0,14.0,93,0.00,,,0.17,VWS V14.00,2013-10-15 12:15:00,
2013-10-15 07:20:00,56.9,54.6,29.99,WNW,292,6.0,13.0,92,0.00,,,0.17,VWS V14.00,2013-10-15 12:20:00,
2013-10-15 07:25:00,56.4,54.1,29.99,WNW,292,4.0,16.0,92,0.00,,,0.17,VWS V14.00,2013-10-15 12:25:00,
2013-10-15 07:30:00,56.0,53.7,29.99,WNW,292,5.0,13.0,92,0.00,,,0.17,VWS V14.00,2013-10-15 12:30:00,
2013-10-15 07:35:00,55.7,53.4,29.99,WNW,292,5.0,13.0,92,0.00,,,0.17,VWS V14.00,2013-10-15 12:35:00,
2013-10-15 07:40:00,55.4,53.1,29.99,WNW,292,5.0,13.0,92,0.00,,,0.17,VWS V14.00,2013-10-15 12:40:00,
2013-10-15 07:45:00,55.0,52.7,29.99,WNW,292,7.0,13.0,92,0.00,,,0.17,VWS V14.00,2013-10-15 12:45:00,
2013-10-15 07:50:00,54.7,52.4,29.99,WNW,292,5.0,9.0,92,0.00,,,0.17,VWS V14.00,2013-10-15 12:50:00,
2013-10-15 07:55:00,54.4,52.1,30.00,WNW,292,5.0,11.0,92,0.00,,,0.17,VWS V14.00,2013-10-15 12:55:00,
2013-10-15 08:00:00,54.1,51.8,30.00,WNW,292,5.0,12.0,92,0.00,,,0.17,VWS V14.00,2013-10-15 13:00:00,
2013-10-15 08:05:00,53.9,51.6,30.00,WNW,292,4.0,10.0,92,0.00,,,0.17,VWS V14.00,2013-10-15 13:05:00,
2013-10-15 08:10:00,53.8,51.5,30.01,WNW,292,3.0,9.0,92,0.00,,,0.17,VWS V14.00,2013-10-15 13:10:00,
2013-10-15 08:15:00,53.6,51.6,30.01,WNW,292,4.0,11.0,93,0.00,,,0.17,VWS V14.00,2013-10-15 13:15:00,
2013-10-15 08:20:00,53.6,51.6,30.01,WNW,292,4.0,8.0,93,0.00,,,0.17,VWS V14.00,2013-10-15 13:20:00,
2013-10-15 08:25:00,53.4,51.4,30.01,WNW,292,4.0,8.0,93,0.00,,,0.17,VWS V14.00,2013-10-15 13:25:00,
2013-10-15 08:30:00,53.3,51.3,30.01,WNW,292,4.0,8.0,93,0.00,,,0.17,VWS V14.00,2013-10-15 13:30:00,
2013-10-15 08:35:00,53.2,51.2,30.02,NW,315,1.0,3.0,93,0.00,,,0.17,VWS V14.00,2013-10-15 13:35:00,
2013-10-15 08:40:00,53.1,51.1,30.02,WNW,292,3.0,8.0,93,0.00,,,0.17,VWS V14.00,2013-10-15 13:40:00,
2013-10-15 08:45:00,53.0,51.0,30.02,WNW,292,3.0,8.0,93,0.00,,,0.17,VWS V14.00,2013-10-15 13:45:00,
2013-10-15 08:50:00,52.9,50.9,30.02,WNW,292,2.0,10.0,93,0.00,,,0.17,VWS V14.00,2013-10-15 13:50:00,
2013-10-15 08:55:00,52.8,50.8,30.03,WNW,292,4.0,10.0,93,0.00,,,0.17,VWS V14.00,2013-10-15 13:55:00,
2013-10-15 09:00:00,52.7,50.7,30.03,WNW,292,3.0,8.0,93,0.00,,,0.17,VWS V14.00,2013-10-15 14:00:00,
2013-10-15 09:05:00,52.8,50.8,30.03,WNW,292,3.0,10.0,93,0.00,,,0.17,VWS V14.00,2013-10-15 14:05:00,
2013-10-15 09:10:00,53.0,51.3,30.03,WNW,292,1.0,5.0,94,0.00,,,0.17,VWS V14.00,2013-10-15 14:10:00,
2013-10-15 09:15:00,53.2,51.5,30.03,WNW,292,3.0,13.0,94,0.00,,,0.17,VWS V14.00,2013-10-15 14:15:00,
2013-10-15 09:20:00,53.4,51.7,30.03,WNW,292,4.0,12.0,94,0.00,,,0.17,VWS V14.00,2013-10-15 14:20:00,
2013-10-15 09:25:00,53.6,51.9,30.03,WSW,248,5.0,11.0,94,0.00,,,0.17,VWS V14.00,2013-10-15 14:25:00,
2013-10-15 09:30:00,53.7,52.0,30.03,West,270,6.0,13.0,94,0.00,,,0.17,VWS V14.00,2013-10-15 14:30:00,
2013-10-15 09:35:00,53.6,51.6,30.04,WNW,292,6.0,16.0,93,0.00,,,0.17,VWS V14.00,2013-10-15 14:35:00,
2013-10-15 09:40:00,53.5,51.5,30.03,West,270,7.0,14.0,93,0.00,,,0.17,VWS V14.00,2013-10-15 14:40:00,
2013-10-15 09:45:00,53.5,51.5,30.04,WNW,292,3.0,11.0,93,0.00,,,0.17,VWS V14.00,2013-10-15 14:45:00,
2013-10-15 09:50:00,53.6,51.6,30.04,WNW,292,5.0,11.0,93,0.00,,,0.17,VWS V14.00,2013-10-15 14:50:00,
2013-10-15 09:55:00,53.6,51.3,30.04,WNW,292,6.0,16.0,92,0.00,,,0.17,VWS V14.00,2013-10-15 14:55:00,
2013-10-15 10:00:00,53.5,50.9,30.04,WNW,292,6.0,15.0,91,0.00,,,0.17,VWS V14.00,2013-10-15 15:00:00,
2013-10-15 10:05:00,53.7,51.4,30.04,West,270,4.0,10.0,92,0.00,,,0.17,VWS V14.00,2013-10-15 15:05:00,
2013-10-15 10:10:00,54.0,52.0,30.04,West,270,5.0,15.0,93,0.00,,,0.17,VWS V14.00,2013-10-15 15:10:00,
2013-10-15 10:15:00,54.2,51.6,30.04,WNW,292,5.0,14.0,91,0.00,,,0.17,VWS V14.00,2013-10-15 15:15:00,
2013-10-15 10:20:00,54.2,51.3,30.05,West,270,5.0,10.0,90,0.00,,,0.17,VWS V14.00,2013-10-15 15:20:00,
2013-10-15 10:25:00,54.3,51.4,30.05,West,270,5.0,13.0,90,0.00,,,0.17,VWS V14.00,2013-10-15 15:25:00,
2013-10-15 10:30:00,54.4,51.2,30.04,WNW,292,4.0,11.0,89,0.00,,,0.17,VWS V14.00,2013-10-15 15:30:00,
2013-10-15 10:35:00,54.6,51.4,30.04,West,270,6.0,14.0,89,0.00,,,0.17,VWS V14.00,2013-10-15 15:35:00,
2013-10-15 10:40:00,54.8,51.3,30.05,WNW,292,6.0,13.0,88,0.00,,,0.17,VWS V14.00,2013-10-15 15:40:00,
2013-10-15 10:45:00,54.9,51.1,30.05,WNW,292,6.0,16.0,87,0.00,,,0.17,VWS V14.00,2013-10-15 15:45:00,
2013-10-15 10:50:00,54.9,50.2,30.05,WNW,292,7.0,16.0,84,0.00,,,0.17,VWS V14.00,2013-10-15 15:50:00,
2013-10-15 10:55:00,55.0,50.3,30.05,West,270,7.0,15.0,84,0.00,,,0.17,VWS V14.00,2013-10-15 15:55:00,
2013-10-15 11:00:00,55.3,50.9,30.05,WNW,292,6.0,13.0,85,0.00,,,0.17,VWS V14.00,2013-10-15 16:00:00,
2013-10-15 11:05:00,55.9,50.5,30.05,WNW,292,5.0,10.0,82,0.00,,,0.17,VWS V14.00,2013-10-15 16:05:00,
2013-10-15 11:10:00,56.6,51.5,30.04,West,270,6.0,13.0,83,0.00,,,0.17,VWS V14.00,2013-10-15 16:10:00,
2013-10-15 11:15:00,57.2,51.8,30.04,West,270,6.0,12.0,82,0.00,,,0.17,VWS V14.00,2013-10-15 16:15:00,
2013-10-15 11:20:00,58.0,51.5,30.05,WNW,292,6.0,12.0,79,0.00,,,0.17,VWS V14.00,2013-10-15 16:20:00,
2013-10-15 11:25:00,58.7,50.8,30.05,WNW,292,4.0,9.0,75,0.00,,,0.17,VWS V14.00,2013-10-15 16:25:00,
2013-10-15 11:30:00,59.2,50.6,30.05,West,270,3.0,8.0,73,0.00,,,0.17,VWS V14.00,2013-10-15 16:30:00,
2013-10-15 11:35:00,59.6,50.2,30.05,WSW,248,5.0,13.0,71,0.00,,,0.17,VWS V14.00,2013-10-15 16:35:00,
2013-10-15 11:40:00,60.1,52.2,30.05,West,270,5.0,14.0,75,0.00,,,0.17,VWS V14.00,2013-10-15 16:40:00,
2013-10-15 11:45:00,60.7,51.6,30.05,West,270,6.0,13.0,72,0.00,,,0.17,VWS V14.00,2013-10-15 16:45:00,
2013-10-15 11:50:00,61.2,51.3,30.05,WNW,292,6.0,13.0,70,0.00,,,0.17,VWS V14.00,2013-10-15 16:50:00,
2013-10-15 11:55:00,61.8,51.1,30.04,WSW,248,7.0,14.0,68,0.00,,,0.17,VWS V14.00,2013-10-15 16:55:00,
2013-10-15 12:00:00,62.3,51.2,30.04,West,270,4.0,10.0,67,0.00,,,0.17,VWS V14.00,2013-10-15 17:00:00,
2013-10-15 12:05:00,62.7,50.4,30.04,WNW,292,3.0,9.0,64,0.00,,,0.17,VWS V14.00,2013-10-15 17:05:00,
2013-10-15 12:10:00,63.1,49.5,30.04,WSW,248,4.0,12.0,61,0.00,,,0.17,VWS V14.00,2013-10-15 17:10:00,
2013-10-15 12:15:00,63.2,51.7,30.04,West,270,2.0,10.0,66,0.00,,,0.17,VWS V14.00,2013-10-15 17:15:00,
2013-10-15 12:20:00,63.5,51.5,30.04,WSW,248,2.0,9.0,65,0.00,,,0.17,VWS V14.00,2013-10-15 17:20:00,
2013-10-15 12:25:00,63.9,50.6,30.04,West,270,5.0,11.0,62,0.01,,,0.18,VWS V14.00,2013-10-15 17:25:00,
2013-10-15 12:30:00,64.3,50.6,30.05,West,270,4.0,10.0,61,0.01,,,0.18,VWS V14.00,2013-10-15 17:30:00,
2013-10-15 12:35:00,64.4,50.2,30.04,West,270,4.0,11.0,60,0.01,,,0.18,VWS V14.00,2013-10-15 17:35:00,
2013-10-15 12:40:00,64.4,50.2,30.04,WNW,292,5.0,11.0,60,0.01,,,0.18,VWS V14.00,2013-10-15 17:40:00,
2013-10-15 12:45:00,64.6,50.0,30.04,WNW,292,6.0,12.0,59,0.01,,,0.18,VWS V14.00,2013-10-15 17:45:00,
2013-10-15 12:50:00,64.6,50.0,30.03,WNW,292,5.0,15.0,59,0.01,,,0.18,VWS V14.00,2013-10-15 17:50:00,
2013-10-15 12:55:00,64.2,49.6,30.04,West,270,5.0,14.0,59,0.01,,,0.18,VWS V14.00,2013-10-15 17:55:00,
2013-10-15 13:00:00,63.9,49.3,30.03,West,270,6.0,12.0,59,0.01,,,0.18,VWS V14.00,2013-10-15 18:00:00,
2013-10-15 13:05:00,64.1,50.8,30.03,WNW,292,5.0,14.0,62,0.01,,,0.18,VWS V14.00,2013-10-15 18:05:00,
2013-10-15 13:10:00,64.5,49.4,30.03,WSW,248,5.0,12.0,58,0.01,,,0.18,VWS V14.00,2013-10-15 18:10:00,
2013-10-15 13:15:00,64.9,49.8,30.03,WNW,292,4.0,11.0,58,0.01,,,0.18,VWS V14.00,2013-10-15 18:15:00,
2013-10-15 13:20:00,64.9,50.2,30.03,WNW,292,4.0,15.0,59,0.01,,,0.18,VWS V14.00,2013-10-15 18:20:00,
2013-10-15 13:25:00,65.1,49.5,30.03,WNW,292,7.0,16.0,57,0.01,,,0.18,VWS V14.00,2013-10-15 18:25:00,
2013-10-15 13:30:00,65.4,52.1,30.03,West,270,6.0,15.0,62,0.00,,,0.18,VWS V14.00,2013-10-15 18:30:00,
2013-10-15 13:35:00,65.7,50.1,30.02,West,270,7.0,13.0,57,0.00,,,0.18,VWS V14.00,2013-10-15 18:35:00,
2013-10-15 13:40:00,65.9,50.2,30.02,WSW,248,6.0,18.0,57,0.00,,,0.18,VWS V14.00,2013-10-15 18:40:00,
2013-10-15 13:45:00,66.1,50.4,30.02,WSW,248,7.0,17.0,57,0.00,,,0.18,VWS V14.00,2013-10-15 18:45:00,
2013-10-15 13:50:00,66.0,48.9,30.02,West,270,7.0,16.0,54,0.00,,,0.18,VWS V14.00,2013-10-15 18:50:00,
2013-10-15 13:55:00,65.6,48.0,30.02,WSW,248,7.0,15.0,53,0.00,,,0.18,VWS V14.00,2013-10-15 18:55:00,
2013-10-15 14:00:00,65.2,49.1,30.02,WSW,248,7.0,18.0,56,0.00,,,0.18,VWS V14.00,2013-10-15 19:00:00,
2013-10-15 14:05:00,64.9,49.3,30.02,West,270,6.0,16.0,57,0.00,,,0.18,VWS V14.00,2013-10-15 19:05:00,
2013-10-15 14:10:00,65.1,49.0,30.03,West,270,6.0,13.0,56,0.00,,,0.18,VWS V14.00,2013-10-15 19:10:00,
2013-10-15 14:15:00,65.7,47.6,30.03,WSW,248,6.0,16.0,52,0.00,,,0.18,VWS V14.00,2013-10-15 19:15:00,
2013-10-15 14:20:00,65.9,49.8,30.02,West,270,6.0,15.0,56,0.00,,,0.18,VWS V14.00,2013-10-15 19:20:00,
2013-10-15 14:25:00,66.3,48.2,30.03,WSW,248,4.0,13.0,52,0.00,,,0.18,VWS V14.00,2013-10-15 19:25:00,
2013-10-15 14:30:00,66.8,49.1,30.03,WSW,248,5.0,14.0,53,0.00,,,0.18,VWS V14.00,2013-10-15 19:30:00,
2013-10-15 14:35:00,67.2,50.0,30.03,West,270,5.0,12.0,54,0.00,,,0.18,VWS V14.00,2013-10-15 19:35:00,
2013-10-15 14:40:00,67.4,49.7,30.03,West,270,5.0,19.0,53,0.00,,,0.18,VWS V14.00,2013-10-15 19:40:00,
2013-10-15 14:45:00,67.4,49.7,30.03,West,270,7.0,14.0,53,0.00,,,0.18,VWS V14.00,2013-10-15 19:45:00,
2013-10-15 14:50:00,67.5,49.3,30.03,WNW,292,5.0,14.0,52,0.00,,,0.18,VWS V14.00,2013-10-15 19:50:00,
2013-10-15 14:55:00,67.6,49.4,30.03,WSW,248,3.0,14.0,52,0.00,,,0.18,VWS V14.00,2013-10-15 19:55:00,
2013-10-15 15:00:00,68.0,49.7,30.03,WSW,248,5.0,16.0,52,0.00,,,0.18,VWS V14.00,2013-10-15 20:00:00,
2013-10-15 15:05:00,67.9,49.1,30.03,West,270,5.0,15.0,51,0.00,,,0.18,VWS V14.00,2013-10-15 20:05:00,
2013-10-15 15:10:00,68.0,48.2,30.02,WNW,292,3.0,13.0,49,0.00,,,0.18,VWS V14.00,2013-10-15 20:10:00,
2013-10-15 15:15:00,68.0,49.2,30.02,WSW,248,6.0,13.0,51,0.00,,,0.18,VWS V14.00,2013-10-15 20:15:00,
2013-10-15 15:20:00,68.0,48.7,30.02,WNW,292,4.0,12.0,50,0.00,,,0.18,VWS V14.00,2013-10-15 20:20:00,
2013-10-15 15:25:00,68.0,49.7,30.03,WSW,248,1.0,8.0,52,0.00,,,0.18,VWS V14.00,2013-10-15 20:25:00,
2013-10-15 15:30:00,68.1,48.8,30.03,WSW,248,3.0,13.0,50,0.00,,,0.18,VWS V14.00,2013-10-15 20:30:00,
2013-10-15 15:35:00,67.9,48.6,30.02,West,270,8.0,14.0,50,0.00,,,0.18,VWS V14.00,2013-10-15 20:35:00,
2013-10-15 15:40:00,67.5,47.7,30.02,WNW,292,7.0,21.0,49,0.00,,,0.18,VWS V14.00,2013-10-15 20:40:00,
2013-10-15 15:45:00,66.9,47.7,30.02,WNW,292,8.0,19.0,50,0.00,,,0.18,VWS V14.00,2013-10-15 20:45:00,
2013-10-15 15:50:00,66.6,47.4,30.02,WNW,292,5.0,16.0,50,0.00,,,0.18,VWS V14.00,2013-10-15 20:50:00,
2013-10-15 15:55:00,66.6,47.4,30.03,West,270,3.0,15.0,50,0.00,,,0.18,VWS V14.00,2013-10-15 20:55:00,
2013-10-15 16:00:00,65.9,48.3,30.03,West,270,7.0,18.0,53,0.00,,,0.18,VWS V14.00,2013-10-15 21:00:00,
2013-10-15 16:05:00,65.6,46.5,30.03,West,270,5.0,12.0,50,0.00,,,0.18,VWS V14.00,2013-10-15 21:05:00,
2013-10-15 16:10:00,65.4,46.8,30.03,WNW,292,2.0,12.0,51,0.00,,,0.18,VWS V14.00,2013-10-15 21:10:00,
2013-10-15 16:15:00,65.2,47.2,30.03,WNW,292,5.0,16.0,52,0.00,,,0.18,VWS V14.00,2013-10-15 21:15:00,
2013-10-15 16:20:00,65.0,46.5,30.03,West,270,6.0,14.0,51,0.00,,,0.18,VWS V14.00,2013-10-15 21:20:00,
2013-10-15 16:25:00,64.7,46.2,30.03,WNW,292,7.0,14.0,51,0.00,,,0.18,VWS V14.00,2013-10-15 21:25:00,
2013-10-15 16:30:00,64.3,46.8,30.03,WNW,292,5.0,12.0,53,0.00,,,0.18,VWS V14.00,2013-10-15 21:30:00,
2013-10-15 16:35:00,63.8,46.8,30.03,WNW,292,4.0,12.0,54,0.00,,,0.18,VWS V14.00,2013-10-15 21:35:00,
2013-10-15 16:40:00,63.5,46.6,30.03,West,270,4.0,15.0,54,0.00,,,0.18,VWS V14.00,2013-10-15 21:40:00,
2013-10-15 16:45:00,63.2,46.8,30.03,West,270,3.0,13.0,55,0.00,,,0.18,VWS V14.00,2013-10-15 21:45:00,
2013-10-15 16:50:00,62.9,47.9,30.03,West,270,6.0,13.0,58,0.00,,,0.18,VWS V14.00,2013-10-15 21:50:00,
2013-10-15 16:55:00,62.4,46.0,30.04,West,270,4.0,10.0,55,0.00,,,0.18,VWS V14.00,2013-10-15 21:55:00,
2013-10-15 17:00:00,61.9,47.0,30.03,WNW,292,2.0,10.0,58,0.00,,,0.18,VWS V14.00,2013-10-15 22:00:00,
2013-10-15 17:05:00,61.5,46.6,30.03,WNW,292,4.0,13.0,58,0.00,,,0.18,VWS V14.00,2013-10-15 22:05:00,
2013-10-15 17:19:00,61.1,46.2,30.03,WNW,292,5.0,14.0,58,0.00,,,0.18,VWS V14.00,2013-10-15 22:19:00,
2013-10-15 17:24:00,59.8,45.9,30.03,WNW,300,2.0,15.0,60,0.00,,,0.17,VWS V14.00,2013-10-15 22:24:00,
2013-10-15 17:29:00,59.3,45.9,30.03,WNW,299,3.0,11.0,61,0.00,,,0.17,VWS V14.00,2013-10-15 22:29:00,
2013-10-15 17:34:00,58.9,45.9,30.03,WNW,288,1.0,2.0,62,0.00,,,0.17,VWS V14.00,2013-10-15 22:34:00,
2013-10-15 17:39:00,58.7,47.0,30.04,NW,305,5.0,10.0,65,0.00,,,0.17,VWS V14.00,2013-10-15 22:39:00,
2013-10-15 17:44:00,58.4,45.9,30.04,WNW,293,6.0,14.0,63,0.00,,,0.17,VWS V14.00,2013-10-15 22:44:00,
2013-10-15 17:49:00,58.2,46.5,30.03,West,264,2.0,9.0,65,0.00,,,0.17,VWS V14.00,2013-10-15 22:49:00,
2013-10-15 17:54:00,58.0,45.9,30.04,NW,307,1.0,9.0,64,0.00,,,0.17,VWS V14.00,2013-10-15 22:54:00,
2013-10-15 17:59:00,57.8,46.5,30.04,West,277,0.0,9.0,66,0.00,,,0.17,VWS V14.00,2013-10-15 22:59:00,
2013-10-15 18:04:00,57.6,45.5,30.04,West,280,9.0,13.0,64,0.00,,,0.17,VWS V14.00,2013-10-15 23:04:00,
2013-10-15 18:09:00,57.4,45.8,30.04,WNW,282,3.0,9.0,65,0.00,,,0.17,VWS V14.00,2013-10-15 23:09:00,
2013-10-15 18:14:00,57.2,45.6,30.05,West,276,4.0,10.0,65,0.00,,,0.17,VWS V14.00,2013-10-15 23:14:00,
2013-10-15 18:19:00,57.0,45.8,30.05,West,277,0.0,3.0,66,0.00,,,0.17,VWS V14.00,2013-10-15 23:19:00,
2013-10-15 18:24:00,56.8,46.0,30.05,West,266,7.0,10.0,67,0.00,,,0.17,VWS V14.00,2013-10-15 23:24:00,
2013-10-15 18:29:00,56.6,45.4,30.05,NW,307,4.0,10.0,66,0.00,,,0.17,VWS V14.00,2013-10-15 23:29:00,
2013-10-15 18:34:00,56.3,45.5,30.04,WNW,284,5.0,10.0,67,0.00,,,0.17,VWS V14.00,2013-10-15 23:34:00,
2013-10-15 18:39:00,55.9,45.1,30.05,West,268,4.0,10.0,67,0.00,,,0.17,VWS V14.00,2013-10-15 23:39:00,
2013-10-15 18:44:00,55.7,45.3,30.05,NW,305,5.0,8.0,68,0.00,,,0.17,VWS V14.00,2013-10-15 23:44:00,
2013-10-15 18:49:00,55.4,44.6,30.05,WNW,287,6.0,10.0,67,0.00,,,0.17,VWS V14.00,2013-10-15 23:49:00,
2013-10-15 18:54:00,55.1,44.7,30.05,WNW,295,2.0,8.0,68,0.00,,,0.17,VWS V14.00,2013-10-15 23:54:00,
2013-10-15 18:59:00,54.9,44.9,30.06,West,276,3.0,9.0,69,0.00,,,0.17,VWS V14.00,2013-10-15 23:59:00,
2013-10-15 19:04:00,54.7,44.7,30.06,West,262,8.0,12.0,69,0.00,,,0.17,VWS V14.00,2013-10-16 00:04:00,
2013-10-15 19:09:00,54.4,44.5,30.06,WNW,302,0.0,12.0,69,0.00,,,0.17,VWS V14.00,2013-10-16 00:09:00,
2013-10-15 19:14:00,54.2,44.6,30.06,NW,314,3.0,7.0,70,0.00,,,0.17,VWS V14.00,2013-10-16 00:14:00,
2013-10-15 19:19:00,53.9,44.3,30.07,West,279,1.0,10.0,70,0.00,,,0.17,VWS V14.00,2013-10-16 00:19:00,
2013-10-15 19:24:00,53.6,44.1,30.07,WNW,293,4.0,10.0,70,0.00,,,0.17,VWS V14.00,2013-10-16 00:24:00,
2013-10-15 19:29:00,53.3,44.2,30.07,WNW,290,4.0,8.0,71,0.00,,,0.17,VWS V14.00,2013-10-16 00:29:00,
2013-10-15 19:34:00,53.1,44.3,30.08,NW,307,2.0,8.0,72,0.00,,,0.17,VWS V14.00,2013-10-16 00:34:00,
2013-10-15 19:39:00,52.8,44.0,30.08,WNW,287,2.0,7.0,72,0.00,,,0.17,VWS V14.00,2013-10-16 00:39:00,
2013-10-15 19:44:00,52.6,44.2,30.08,NW,304,5.0,10.0,73,0.00,,,0.17,VWS V14.00,2013-10-16 00:44:00,
2013-10-15 19:49:00,52.3,44.3,30.08,West,278,5.0,9.0,74,0.00,,,0.17,VWS V14.00,2013-10-16 00:49:00,
2013-10-15 19:54:00,52.1,44.1,30.08,WNW,297,2.0,8.0,74,0.00,,,0.17,VWS V14.00,2013-10-16 00:54:00,
2013-10-15 19:59:00,51.9,44.2,30.08,NW,321,5.0,12.0,75,0.00,,,0.17,VWS V14.00,2013-10-16 00:59:00,
2013-10-15 20:04:00,51.7,44.0,30.08,WNW,286,3.0,7.0,75,0.00,,,0.17,VWS V14.00,2013-10-16 01:04:00,
2013-10-15 20:09:00,51.5,43.8,30.09,WNW,288,1.0,6.0,75,0.00,,,0.17,VWS V14.00,2013-10-16 01:09:00,
2013-10-15 20:14:00,51.3,43.7,30.09,WSW,249,3.0,8.0,75,0.00,,,0.17,VWS V14.00,2013-10-16 01:14:00,
2013-10-15 20:19:00,51.1,43.8,30.09,West,275,1.0,8.0,76,0.00,,,0.17,VWS V14.00,2013-10-16 01:19:00,
2013-10-15 20:25:00,50.9,43.6,30.09,West,270,3.0,7.0,76,0.00,,,0.17,VWS V14.00,2013-10-16 01:25:00,
2013-10-15 20:30:00,50.8,43.5,30.10,WNW,292,4.0,8.0,76,0.00,,,0.17,VWS V14.00,2013-10-16 01:30:00,
2013-10-15 20:35:00,50.6,43.7,30.10,WNW,292,3.0,7.0,77,0.00,,,0.17,VWS V14.00,2013-10-16 01:35:00,
2013-10-15 20:40:00,50.5,43.2,30.10,WNW,292,3.0,6.0,76,0.00,,,0.17,VWS V14.00,2013-10-16 01:40:00,
2013-10-15 20:45:00,50.3,43.0,30.10,WNW,292,3.0,8.0,76,0.00,,,0.17,VWS V14.00,2013-10-16 01:45:00,
2013-10-15 20:50:00,50.1,43.2,30.10,WNW,292,3.0,7.0,77,0.00,,,0.17,VWS V14.00,2013-10-16 01:50:00,
2013-10-15 20:55:00,50.0,43.1,30.10,WNW,292,4.0,12.0,77,0.00,,,0.17,VWS V14.00,2013-10-16 01:55:00,
2013-10-15 21:00:00,49.9,43.3,30.11,WNW,292,4.0,9.0,78,0.00,,,0.17,VWS V14.00,2013-10-16 02:00:00,
2013-10-15 21:05:00,49.7,43.1,30.11,WNW,292,4.0,9.0,78,0.00,,,0.17,VWS V14.00,2013-10-16 02:05:00,
2013-10-15 21:10:00,49.6,43.4,30.11,NW,315,3.0,7.0,79,0.00,,,0.17,VWS V14.00,2013-10-16 02:10:00,
2013-10-15 21:15:00,49.5,43.3,30.11,WNW,292,2.0,5.0,79,0.00,,,0.17,VWS V14.00,2013-10-16 02:15:00,
2013-10-15 21:20:00,49.3,42.7,30.12,WNW,292,2.0,5.0,78,0.00,,,0.17,VWS V14.00,2013-10-16 02:20:00,
2013-10-15 21:25:00,49.1,42.5,30.12,WNW,292,3.0,7.0,78,0.00,,,0.17,VWS V14.00,2013-10-16 02:25:00,
2013-10-15 21:30:00,48.9,42.3,30.12,NW,315,3.0,6.0,78,0.00,,,0.17,VWS V14.00,2013-10-16 02:30:00,
2013-10-15 21:35:00,48.7,42.5,30.12,WNW,292,3.0,8.0,79,0.00,,,0.17,VWS V14.00,2013-10-16 02:35:00,
2013-10-15 21:40:00,48.5,42.3,30.12,WNW,292,4.0,11.0,79,0.00,,,0.17,VWS V14.00,2013-10-16 02:40:00,
2013-10-15 21:45:00,48.4,42.2,30.12,WNW,292,5.0,13.0,79,0.00,,,0.17,VWS V14.00,2013-10-16 02:45:00,
2013-10-15 21:50:00,48.3,42.1,30.12,WNW,292,5.0,9.0,79,0.00,,,0.17,VWS V14.00,2013-10-16 02:50:00,
2013-10-15 21:55:00,48.3,41.8,30.12,WNW,292,4.0,7.0,78,0.00,,,0.17,VWS V14.00,2013-10-16 02:55:00,
2013-10-15 22:00:00,48.2,42.0,30.12,WNW,292,4.0,8.0,79,0.00,,,0.17,VWS V14.00,2013-10-16 03:00:00,
2013-10-15 22:05:00,48.1,41.9,30.12,WNW,292,2.0,8.0,79,0.00,,,0.17,VWS V14.00,2013-10-16 03:05:00,
2013-10-15 22:10:00,48.0,41.8,30.12,WNW,292,3.0,9.0,79,0.00,,,0.17,VWS V14.00,2013-10-16 03:10:00,
2013-10-15 22:15:00,47.9,41.7,30.12,WNW,292,3.0,8.0,79,0.00,,,0.17,VWS V14.00,2013-10-16 03:15:00,
2013-10-15 22:20:00,47.8,41.6,30.12,WNW,292,3.0,7.0,79,0.00,,,0.17,VWS V14.00,2013-10-16 03:20:00,
2013-10-15 22:25:00,47.6,41.4,30.13,West,270,3.0,8.0,79,0.00,,,0.17,VWS V14.00,2013-10-16 03:25:00,
2013-10-15 22:30:00,47.4,41.2,30.13,West,270,2.0,7.0,79,0.00,,,0.17,VWS V14.00,2013-10-16 03:30:00,
2013-10-15 22:35:00,47.3,41.1,30.13,West,270,2.0,5.0,79,0.00,,,0.17,VWS V14.00,2013-10-16 03:35:00,
2013-10-15 22:40:00,47.0,40.8,30.13,West,270,2.0,5.0,79,0.00,,,0.17,VWS V14.00,2013-10-16 03:40:00,
2013-10-15 22:45:00,46.8,40.6,30.13,West,270,2.0,5.0,79,0.00,,,0.17,VWS V14.00,2013-10-16 03:45:00,
2013-10-15 22:50:00,46.5,40.3,30.13,West,270,2.0,4.0,79,0.00,,,0.17,VWS V14.00,2013-10-16 03:50:00,
2013-10-15 22:55:00,46.2,40.4,30.13,WNW,292,2.0,3.0,80,0.00,,,0.17,VWS V14.00,2013-10-16 03:55:00,
2013-10-15 23:00:00,45.6,39.5,30.13,WNW,292,1.0,3.0,79,0.00,,,0.17,VWS V14.00,2013-10-16 04:00:00,
2013-10-15 23:05:00,45.2,39.4,30.13,WSW,248,2.0,4.0,80,0.00,,,0.17,VWS V14.00,2013-10-16 04:05:00,
2013-10-15 23:10:00,45.0,39.5,30.13,WSW,248,3.0,4.0,81,0.00,,,0.17,VWS V14.00,2013-10-16 04:10:00,
2013-10-15 23:15:00,44.7,38.9,30.13,SW,225,2.0,5.0,80,0.00,,,0.17,VWS V14.00,2013-10-16 04:15:00,
2013-10-15 23:20:00,44.6,39.5,30.13,WSW,248,2.0,5.0,82,0.00,,,0.17,VWS V14.00,2013-10-16 04:20:00,
2013-10-15 23:25:00,44.3,39.5,30.13,WSW,248,3.0,5.0,83,0.00,,,0.17,VWS V14.00,2013-10-16 04:25:00,
2013-10-15 23:30:00,44.2,39.4,30.13,SW,225,3.0,6.0,83,0.00,,,0.17,VWS V14.00,2013-10-16 04:30:00,
2013-10-15 23:35:00,44.1,39.3,30.13,WSW,248,3.0,5.0,83,0.00,,,0.17,VWS V14.00,2013-10-16 04:35:00,
2013-10-15 23:40:00,44.0,39.5,30.13,WSW,248,2.0,5.0,84,0.00,,,0.17,VWS V14.00,2013-10-16 04:40:00,
2013-10-15 23:45:00,44.0,39.8,30.13,WSW,248,3.0,5.0,85,0.00,,,0.17,VWS V14.00,2013-10-16 04:45:00,
2013-10-15 23:50:00,43.9,39.7,30.13,West,270,2.0,4.0,85,0.00,,,0.17,VWS V14.00,2013-10-16 04:50:00,
2013-10-15 23:55:00,43.7,39.5,30.13,WSW,248,2.0,5.0,85,0.00,,,0.17,VWS V14.00,2013-10-16 04:55:00,